Time;durP1;ratioP1;P1;durP2;ratioP2;P2;SDS_P1;SDS_P2;PMS_P1;PMS_P2;Temp;Humidity;BMP_temperature;BMP_pressure;BME280_temperature;BME280_humidity;BME280_pressure;Samples;Min_cycle;Max_cycle;Signal;HPM_P1;HPM_P2
2022/11/30 00:00:21;;;;;;;690.60;639.10;;;6.40;43.50;;;;;;5071393;28;20170;-73
2022/11/30 00:02:48;;;;;;;715.43;660.83;;;6.50;43.30;;;;;;5070924;28;20234;-72
2022/11/30 00:05:14;;;;;;;564.23;520.93;;;6.40;42.50;;;;;;5071318;28;21025;-73
2022/11/30 00:07:39;;;;;;;673.13;621.93;;;6.30;42.40;;;;;;5071181;28;20440;-74
2022/11/30 00:10:06;;;;;;;579.17;539.97;;;6.40;42.90;;;;;;5071233;28;20178;-72
2022/11/30 00:12:32;;;;;;;818.03;755.30;;;6.40;43.00;;;;;;5069425;28;20228;-72
2022/11/30 00:14:58;;;;;;;565.07;521.20;;;6.30;42.90;;;;;;5071173;28;20413;-73
2022/11/30 00:17:24;;;;;;;720.73;664.67;;;6.20;43.80;;;;;;5070721;28;20946;-73
2022/11/30 00:19:49;;;;;;;601.77;557.93;;;6.20;43.70;;;;;;5070960;28;20189;-72
2022/11/30 00:22:15;;;;;;;606.83;560.23;;;6.20;43.60;;;;;;5073316;28;20602;-72
2022/11/30 00:24:40;;;;;;;543.87;502.07;;;6.20;44.50;;;;;;5074660;28;20179;-72
2022/11/30 00:27:06;;;;;;;384.27;355.03;;;6.20;44.10;;;;;;5074466;28;20217;-72
2022/11/30 00:29:31;;;;;;;426.60;393.60;;;6.20;44.10;;;;;;5074551;28;20181;-72
2022/11/30 00:31:57;;;;;;;564.60;520.93;;;6.20;44.00;;;;;;5072771;28;20301;-71
2022/11/30 00:34:22;;;;;;;640.43;591.83;;;6.20;43.30;;;;;;5074363;28;20181;-73
2022/11/30 00:36:48;;;;;;;621.00;574.17;;;6.00;44.00;;;;;;5074294;28;20718;-72
2022/11/30 00:39:13;;;;;;;530.90;491.03;;;6.10;45.50;;;;;;5073133;28;20421;-72
2022/11/30 00:41:39;;;;;;;548.07;510.67;;;6.10;44.10;;;;;;5073966;28;20264;-71
2022/11/30 00:44:04;;;;;;;481.27;443.60;;;6.10;45.80;;;;;;5074337;28;20186;-73
2022/11/30 00:46:30;;;;;;;605.53;562.23;;;6.20;45.40;;;;;;5073116;28;20182;-72
2022/11/30 00:48:56;;;;;;;608.93;562.87;;;6.20;45.40;;;;;;5072942;28;20425;-72
2022/11/30 00:51:21;;;;;;;339.80;312.00;;;6.20;44.20;;;;;;5074238;28;20188;-72
2022/11/30 00:53:47;;;;;;;540.03;496.50;;;6.20;44.20;;;;;;5073743;28;20289;-72
2022/11/30 00:56:13;;;;;;;789.47;729.13;;;6.20;45.00;;;;;;5073824;28;20170;-74
2022/11/30 00:58:39;;;;;;;580.47;537.03;;;6.20;44.20;;;;;;5074023;28;20198;-73
2022/11/30 01:01:06;;;;;;;470.10;437.00;;;6.20;44.10;;;;;;5073916;28;20183;-72
2022/11/30 01:03:33;;;;;;;591.77;547.17;;;6.20;44.10;;;;;;5073898;28;20452;-72
2022/11/30 01:06:08;;;;;;;496.60;459.77;;;6.10;42.80;;;;;;5072577;28;20446;-72
2022/11/30 01:08:34;;;;;;;337.40;309.77;;;6.00;44.00;;;;;;5060657;28;20474;-73
2022/11/30 01:11:10;;;;;;;384.73;355.80;;;6.10;43.90;;;;;;5073752;28;20409;-72
2022/11/30 01:13:35;;;;;;;585.87;542.33;;;6.00;44.00;;;;;;5073344;28;21019;-72
2022/11/30 01:16:06;;;;;;;505.17;468.37;;;5.90;43.90;;;;;;5073586;28;20495;-73
2022/11/30 01:18:36;;;;;;;527.73;486.80;;;5.90;44.80;;;;;;5073363;28;20166;-73
2022/11/30 01:21:05;;;;;;;464.37;431.13;;;5.90;45.10;;;;;;5073609;28;20926;-73
2022/11/30 01:23:31;;;;;;;565.93;524.03;;;5.90;45.40;;;;;;5073213;28;20530;-72
2022/11/30 01:25:56;;;;;;;507.87;470.00;;;5.90;44.90;;;;;;5073509;28;20447;-73
2022/11/30 01:28:22;;;;;;;452.53;420.00;;;5.90;45.20;;;;;;5073464;28;20235;-72
2022/11/30 01:30:58;;;;;;;365.40;336.30;;;5.80;44.90;;;;;;5073189;28;20217;-72
2022/11/30 01:33:24;;;;;;;416.43;385.07;;;5.90;44.60;;;;;;5072168;28;20216;-72
2022/11/30 01:36:11;;;;;;;373.23;342.73;;;5.90;44.60;;;;;;5073316;28;20408;-71
2022/11/30 01:38:40;;;;;;;412.53;378.37;;;5.90;45.00;;;;;;5073221;28;20972;-72
2022/11/30 01:41:07;;;;;;;409.20;377.87;;;5.90;44.50;;;;;;5073005;28;21265;-72
2022/11/30 01:43:46;;;;;;;618.37;569.70;;;5.90;44.50;;;;;;5072747;28;20464;-72
2022/11/30 01:46:15;;;;;;;471.57;435.47;;;5.90;44.30;;;;;;5073118;28;20773;-72
2022/11/30 01:48:40;;;;;;;523.97;485.37;;;5.80;44.40;;;;;;5072948;28;20412;-70
2022/11/30 01:51:06;;;;;;;606.57;562.57;;;5.90;44.90;;;;;;5072806;28;20427;-72
2022/11/30 01:53:32;;;;;;;422.03;391.70;;;5.80;43.90;;;;;;5071136;28;20200;-72
2022/11/30 01:55:57;;;;;;;653.30;605.20;;;5.90;45.00;;;;;;5072713;28;20181;-72
2022/11/30 01:58:26;;;;;;;690.00;638.60;;;5.90;44.20;;;;;;5072821;28;20184;-71
2022/11/30 02:00:52;;;;;;;532.17;494.17;;;5.90;44.90;;;;;;5073142;28;20612;-71
2022/11/30 02:03:42;;;;;;;599.77;558.63;;;5.90;44.70;;;;;;5072302;28;20480;-71
2022/11/30 02:06:08;;;;;;;595.60;553.27;;;5.90;44.40;;;;;;5073120;28;20170;-72
2022/11/30 02:08:34;;;;;;;601.13;554.60;;;6.00;45.30;;;;;;5072706;28;20509;-71
2022/11/30 02:11:04;;;;;;;659.70;609.67;;;6.00;44.50;;;;;;5073247;28;20499;-71
2022/11/30 02:13:35;;;;;;;716.73;661.00;;;6.00;44.80;;;;;;5072569;28;20216;-71
2022/11/30 02:16:28;;;;;;;423.73;390.63;;;6.00;44.60;;;;;;5073124;28;20418;-71
2022/11/30 02:19:26;;;;;;;538.57;496.47;;;6.00;44.50;;;;;;5073312;28;20412;-71
2022/11/30 02:22:01;;;;;;;564.33;523.93;;;6.00;44.00;;;;;;5072887;28;20409;-71
2022/11/30 02:24:38;;;;;;;592.87;550.63;;;5.90;43.90;;;;;;5072269;28;20419;-71
2022/11/30 02:27:17;;;;;;;680.17;633.37;;;5.90;43.90;;;;;;5072544;28;20845;-71
2022/11/30 02:29:57;;;;;;;698.77;649.90;;;5.90;45.10;;;;;;5072662;28;20469;-71
2022/11/30 02:32:30;;;;;;;375.37;343.17;;;5.90;45.20;;;;;;5072033;28;20484;-71
2022/11/30 02:34:59;;;;;;;629.63;583.90;;;6.00;45.20;;;;;;5072518;28;20444;-71
2022/11/30 02:37:27;;;;;;;699.20;646.47;;;6.00;43.40;;;;;;5072460;28;20420;-71
2022/11/30 02:39:52;;;;;;;613.23;569.40;;;6.10;44.10;;;;;;5072659;28;20413;-71
2022/11/30 02:42:18;;;;;;;510.40;473.77;;;6.00;43.00;;;;;;5072201;28;20498;-71
2022/11/30 02:44:47;;;;;;;671.13;619.30;;;6.00;44.30;;;;;;5071520;28;20212;-71
2022/11/30 02:47:22;;;;;;;812.27;748.77;;;6.00;43.70;;;;;;5072320;28;20178;-71
2022/11/30 02:49:54;;;;;;;647.63;599.60;;;6.00;44.40;;;;;;5071935;28;20436;-72
2022/11/30 02:52:24;;;;;;;461.10;425.90;;;6.00;44.00;;;;;;5071888;28;20470;-71
2022/11/30 02:54:50;;;;;;;483.13;445.43;;;6.00;44.00;;;;;;5072394;28;20783;-71
2022/11/30 02:57:16;;;;;;;631.10;588.00;;;5.90;44.40;;;;;;5071218;28;20412;-71
2022/11/30 02:59:41;;;;;;;647.57;598.83;;;5.90;43.90;;;;;;5070742;28;20404;-71
2022/11/30 03:02:07;;;;;;;766.87;707.27;;;5.90;44.80;;;;;;5071513;28;20213;-71
2022/11/30 03:04:33;;;;;;;799.00;738.67;;;5.90;44.50;;;;;;5071943;28;20240;-71
2022/11/30 03:06:58;;;;;;;532.00;491.33;;;6.00;44.70;;;;;;5070603;28;20597;-71
2022/11/30 03:09:24;;;;;;;610.80;565.40;;;6.00;44.60;;;;;;5070685;28;20187;-71
2022/11/30 03:11:50;;;;;;;705.13;652.27;;;6.00;44.00;;;;;;5070444;28;20219;-71
2022/11/30 03:14:16;;;;;;;507.53;471.33;;;6.00;43.10;;;;;;5072428;28;20527;-71
2022/11/30 03:16:43;;;;;;;717.13;664.53;;;6.00;43.70;;;;;;5071841;28;20243;-72
2022/11/30 03:19:08;;;;;;;579.80;535.27;;;6.00;44.00;;;;;;5071566;28;20641;-71
2022/11/30 03:21:34;;;;;;;428.60;395.23;;;6.10;43.20;;;;;;5071510;28;20409;-71
2022/11/30 03:23:59;;;;;;;698.00;643.97;;;6.10;43.60;;;;;;5071330;28;20178;-71
2022/11/30 03:26:25;;;;;;;732.10;681.83;;;6.00;44.00;;;;;;5071778;28;20177;-71
2022/11/30 03:28:51;;;;;;;458.03;421.47;;;6.10;44.10;;;;;;5071410;28;20186;-72
2022/11/30 03:31:16;;;;;;;648.30;599.97;;;6.10;43.80;;;;;;5071612;28;20213;-72
2022/11/30 03:33:42;;;;;;;447.87;412.97;;;6.10;43.80;;;;;;5071009;28;20640;-71
2022/11/30 03:36:10;;;;;;;245.87;225.97;;;6.20;43.40;;;;;;5071992;28;20654;-71
2022/11/30 03:38:36;;;;;;;689.67;639.00;;;6.20;42.50;;;;;;5071259;28;20208;-71
2022/11/30 03:41:04;;;;;;;800.80;739.23;;;6.10;42.70;;;;;;5071414;28;20436;-71
2022/11/30 03:43:30;;;;;;;763.50;705.90;;;6.10;43.40;;;;;;5070900;28;20447;-71
2022/11/30 03:45:56;;;;;;;813.60;751.37;;;6.00;43.50;;;;;;5071224;28;20412;-72
2022/11/30 03:48:22;;;;;;;830.70;767.23;;;6.00;44.00;;;;;;5071331;28;20965;-71
2022/11/30 03:50:49;;;;;;;628.20;582.90;;;6.00;44.00;;;;;;5071349;28;20649;-71
2022/11/30 03:53:16;;;;;;;446.17;411.17;;;6.00;44.00;;;;;;5070781;28;20496;-72
2022/11/30 03:55:42;;;;;;;592.03;550.00;;;6.00;44.00;;;;;;5071526;28;20423;-72
2022/11/30 03:58:07;;;;;;;690.60;638.83;;;6.00;43.40;;;;;;5075227;28;20788;-72
2022/11/30 04:00:33;;;;;;;410.37;380.73;;;6.00;44.00;;;;;;5074964;28;20183;-72
2022/11/30 04:02:59;;;;;;;575.57;534.87;;;6.00;44.00;;;;;;5074685;28;20215;-72
2022/11/30 04:05:24;;;;;;;576.83;535.67;;;6.00;44.00;;;;;;5074862;28;20188;-70
2022/11/30 04:07:50;;;;;;;515.17;474.83;;;6.00;44.00;;;;;;5075004;28;20178;-70
2022/11/30 04:10:15;;;;;;;530.10;488.13;;;6.00;44.00;;;;;;5074997;28;20179;-70
2022/11/30 04:12:41;;;;;;;518.43;482.63;;;5.90;44.20;;;;;;5074636;28;20284;-70
2022/11/30 04:15:07;;;;;;;526.47;491.90;;;6.10;44.10;;;;;;5074857;28;20174;-70
2022/11/30 04:17:32;;;;;;;633.27;585.10;;;6.00;43.80;;;;;;5074488;28;20296;-70
2022/11/30 04:19:58;;;;;;;633.97;589.67;;;6.10;44.10;;;;;;5074681;28;20409;-70
2022/11/30 04:22:23;;;;;;;640.93;590.93;;;6.10;42.90;;;;;;5074266;28;20217;-70
2022/11/30 04:24:49;;;;;;;757.60;700.30;;;6.10;43.30;;;;;;5074740;28;20205;-70
2022/11/30 04:27:14;;;;;;;625.63;579.77;;;6.20;43.30;;;;;;5074660;28;20180;-70
2022/11/30 04:29:40;;;;;;;569.83;523.87;;;6.10;42.90;;;;;;5074280;28;20193;-70
2022/11/30 04:32:05;;;;;;;569.03;530.13;;;6.10;43.80;;;;;;5072780;28;20210;-70
2022/11/30 04:34:31;;;;;;;745.17;686.30;;;6.10;43.10;;;;;;5074483;28;20204;-70
2022/11/30 04:36:57;;;;;;;667.00;616.60;;;6.20;43.10;;;;;;5074529;28;20171;-70
2022/11/30 04:39:22;;;;;;;550.23;515.00;;;6.20;42.50;;;;;;5073988;28;20183;-70
2022/11/30 04:41:48;;;;;;;635.20;590.17;;;6.20;42.90;;;;;;5073860;28;20176;-70
2022/11/30 04:44:13;;;;;;;485.30;449.43;;;6.30;42.00;;;;;;5074292;28;20288;-70
2022/11/30 04:46:39;;;;;;;597.53;553.17;;;6.30;41.90;;;;;;5074150;28;20182;-71
2022/11/30 04:49:04;;;;;;;758.37;702.73;;;6.30;41.20;;;;;;5074292;28;20222;-71
2022/11/30 04:51:30;;;;;;;401.30;377.00;;;6.30;41.50;;;;;;5073908;28;20659;-71
2022/11/30 04:53:55;;;;;;;898.10;825.80;;;6.30;42.30;;;;;;5073939;28;20602;-71
2022/11/30 04:56:21;;;;;;;743.93;687.77;;;6.40;41.70;;;;;;5074028;28;20171;-71
2022/11/30 04:58:46;;;;;;;849.90;783.20;;;6.20;40.80;;;;;;5074049;28;20187;-70
2022/11/30 05:01:12;;;;;;;481.70;448.47;;;6.20;42.20;;;;;;5073776;28;20194;-70
2022/11/30 05:03:37;;;;;;;631.87;584.60;;;6.20;41.60;;;;;;5073946;28;20224;-70
2022/11/30 05:06:03;;;;;;;728.97;675.47;;;6.10;42.10;;;;;;5073869;28;20182;-70
2022/11/30 05:08:29;;;;;;;663.07;615.13;;;6.20;42.20;;;;;;5072982;28;20234;-70
2022/11/30 05:10:55;;;;;;;647.73;597.27;;;6.20;41.90;;;;;;5073609;28;20728;-70
2022/11/30 05:13:22;;;;;;;497.77;458.40;;;6.10;41.50;;;;;;5073334;28;20204;-70
2022/11/30 05:15:47;;;;;;;261.90;241.30;;;6.10;42.20;;;;;;5073569;28;20212;-70
2022/11/30 05:18:14;;;;;;;662.83;614.57;;;6.10;42.30;;;;;;5073665;28;20873;-70
2022/11/30 05:20:40;;;;;;;711.87;659.83;;;6.10;41.30;;;;;;5073852;28;20182;-70
2022/11/30 05:23:06;;;;;;;794.77;735.40;;;6.10;41.40;;;;;;5073432;28;20880;-71
2022/11/30 05:25:32;;;;;;;581.60;539.53;;;6.00;42.00;;;;;;5074397;28;20525;-70
2022/11/30 05:27:57;;;;;;;569.43;523.17;;;6.00;42.60;;;;;;5073692;28;20188;-70
2022/11/30 05:30:23;;;;;;;643.70;598.30;;;6.10;42.80;;;;;;5078716;28;20584;-72
2022/11/30 05:32:48;;;;;;;602.87;556.93;;;6.10;42.40;;;;;;5079573;28;20241;-70
2022/11/30 05:35:14;;;;;;;542.70;506.17;;;6.00;42.40;;;;;;5071397;28;20253;-71
2022/11/30 05:37:39;;;;;;;718.60;665.00;;;6.00;43.10;;;;;;5066937;28;20189;-72
2022/11/30 05:40:05;;;;;;;753.20;699.30;;;6.10;42.00;;;;;;5074715;28;20179;-71
2022/11/30 05:42:31;;;;;;;751.60;693.67;;;6.00;42.40;;;;;;5077750;28;20216;-72
2022/11/30 05:44:56;;;;;;;800.97;740.93;;;6.00;42.90;;;;;;5077929;28;20420;-72
2022/11/30 05:47:22;;;;;;;786.27;725.23;;;5.90;42.40;;;;;;5078414;28;20204;-71
2022/11/30 05:49:48;;;;;;;616.00;568.33;;;5.90;43.70;;;;;;5076557;28;20199;-72
2022/11/30 05:52:13;;;;;;;745.80;690.20;;;5.90;43.60;;;;;;5075589;28;20209;-75
2022/11/30 05:54:39;;;;;;;601.20;561.07;;;5.80;43.10;;;;;;5074592;28;20175;-72
2022/11/30 05:57:04;;;;;;;504.03;468.83;;;5.90;43.00;;;;;;5073631;28;20269;-73
2022/11/30 05:59:30;;;;;;;722.13;672.33;;;5.80;43.40;;;;;;5075096;28;20261;-71
2022/11/30 06:01:55;;;;;;;812.27;751.27;;;5.90;42.30;;;;;;5074191;28;20198;-71
2022/11/30 06:04:21;;;;;;;760.37;701.40;;;6.00;42.20;;;;;;5074338;28;20183;-72
2022/11/30 06:06:48;;;;;;;764.53;708.90;;;6.00;41.90;;;;;;5074552;28;20176;-72
2022/11/30 06:09:14;;;;;;;489.30;454.37;;;5.90;41.40;;;;;;5074213;28;20413;-72
2022/11/30 06:11:39;;;;;;;527.03;491.37;;;5.90;42.00;;;;;;5074246;28;20424;-72
2022/11/30 06:14:05;;;;;;;419.03;386.00;;;5.90;42.30;;;;;;5073938;28;20551;-71
2022/11/30 06:16:30;;;;;;;738.93;687.53;;;5.90;41.60;;;;;;5073730;28;20203;-72
2022/11/30 06:18:56;;;;;;;678.67;632.90;;;5.90;41.20;;;;;;5072327;28;20179;-71
2022/11/30 06:21:22;;;;;;;801.90;741.87;;;5.90;41.90;;;;;;5073933;28;20175;-71
2022/11/30 06:23:47;;;;;;;838.20;773.83;;;5.90;41.60;;;;;;5073704;28;20201;-71
2022/11/30 06:26:13;;;;;;;630.73;583.90;;;5.90;40.60;;;;;;5084381;28;20193;-73
2022/11/30 06:28:39;;;;;;;660.77;616.50;;;5.80;40.50;;;;;;5082818;28;20674;-72
2022/11/30 06:31:06;;;;;;;759.73;704.83;;;5.80;41.40;;;;;;5083891;28;20185;-73
2022/11/30 06:33:33;;;;;;;679.60;631.80;;;5.90;41.00;;;;;;5072806;28;20456;-70
2022/11/30 06:35:59;;;;;;;800.37;740.80;;;5.90;41.20;;;;;;5072545;28;20417;-70
2022/11/30 06:38:25;;;;;;;649.87;608.10;;;5.90;41.20;;;;;;5071357;28;20420;-71
2022/11/30 06:40:51;;;;;;;703.43;654.70;;;6.00;40.90;;;;;;5072619;28;20177;-71
2022/11/30 06:43:17;;;;;;;672.13;629.53;;;6.00;40.40;;;;;;5071746;28;20828;-70
2022/11/30 06:45:44;;;;;;;748.70;695.03;;;6.00;40.20;;;;;;5071021;28;20425;-70
2022/11/30 06:48:10;;;;;;;648.67;604.83;;;6.00;39.50;;;;;;5072213;28;20474;-71
2022/11/30 06:50:35;;;;;;;647.63;605.73;;;6.00;39.90;;;;;;5072438;28;20412;-71
2022/11/30 06:53:01;;;;;;;614.27;574.00;;;6.00;40.00;;;;;;5072073;28;20467;-71
2022/11/30 06:55:31;;;;;;;411.57;380.83;;;6.00;40.00;;;;;;5072470;28;20417;-71
2022/11/30 06:58:09;;;;;;;671.70;626.10;;;6.10;40.10;;;;;;5072087;28;20274;-71
2022/11/30 07:00:36;;;;;;;704.57;657.13;;;6.10;39.00;;;;;;5071713;28;20422;-71
2022/11/30 07:03:02;;;;;;;665.33;621.30;;;6.10;39.10;;;;;;5072773;28;20498;-70
2022/11/30 07:05:31;;;;;;;490.40;457.60;;;6.20;39.10;;;;;;5072680;28;20423;-70
2022/11/30 07:07:56;;;;;;;183.57;169.17;;;6.20;39.10;;;;;;5071871;28;20414;-70
2022/11/30 07:10:22;;;;;;;644.33;601.43;;;6.30;38.10;;;;;;5072000;28;20410;-69
2022/11/30 07:12:48;;;;;;;638.43;595.50;;;6.20;38.30;;;;;;5071822;28;20297;-71
2022/11/30 07:15:14;;;;;;;686.43;639.43;;;6.20;39.10;;;;;;5071411;28;20182;-71
2022/11/30 07:17:40;;;;;;;581.37;544.50;;;6.20;39.00;;;;;;5073098;28;20416;-71
2022/11/30 07:20:06;;;;;;;703.57;650.20;;;6.20;37.30;;;;;;5072724;28;20198;-71
2022/11/30 07:22:31;;;;;;;670.27;624.40;;;6.30;37.10;;;;;;5072767;28;20198;-74
2022/11/30 07:27:41;;;;;;;439.83;405.43;;;6.30;35.40;;;;;;5080998;28;20350;-73
2022/11/30 07:30:07;;;;;;;331.40;309.50;;;6.30;35.40;;;;;;5080939;28;20986;-74
2022/11/30 07:32:33;;;;;;;262.93;240.77;;;6.30;34.00;;;;;;5084902;28;20537;-74
2022/11/30 07:34:58;;;;;;;243.67;223.70;;;6.20;33.20;;;;;;5083950;28;20413;-72
2022/11/30 07:37:24;;;;;;;425.80;393.40;;;6.10;31.20;;;;;;5086542;28;20183;-73
2022/11/30 07:39:50;;;;;;;366.93;337.83;;;6.00;31.40;;;;;;5085309;28;20257;-73
2022/11/30 07:42:16;;;;;;;381.40;354.77;;;6.10;30.80;;;;;;5085401;28;20211;-73
2022/11/30 07:44:42;;;;;;;302.27;278.00;;;6.10;31.20;;;;;;5082918;28;20264;-73
2022/11/30 07:47:08;;;;;;;652.47;606.93;;;6.20;30.00;;;;;;5087681;28;20456;-73
2022/11/30 07:49:33;;;;;;;403.47;374.43;;;6.20;30.00;;;;;;5088077;28;20186;-70
2022/11/30 07:51:59;;;;;;;333.60;309.10;;;6.40;30.90;;;;;;5076909;28;20205;-73
2022/11/30 07:54:24;;;;;;;286.23;262.47;;;6.40;30.60;;;;;;5064654;28;20231;-71
2022/11/30 07:56:50;;;;;;;468.23;435.03;;;6.60;29.40;;;;;;5065665;28;20181;-72
2022/11/30 07:59:16;;;;;;;204.33;187.27;;;6.60;29.40;;;;;;5062983;28;20251;-70
2022/11/30 08:01:41;;;;;;;429.20;397.90;;;6.60;29.40;;;;;;5063934;28;20185;-72
2022/11/30 08:04:07;;;;;;;315.00;289.20;;;6.70;29.00;;;;;;5091525;22;20227;-71
2022/11/30 08:06:32;;;;;;;262.67;242.87;;;6.70;29.10;;;;;;5076311;28;20233;-70
2022/11/30 08:09:01;;;;;;;422.57;393.53;;;6.80;29.10;;;;;;5076795;28;20179;-70
2022/11/30 08:11:29;;;;;;;438.97;407.73;;;6.80;28.80;;;;;;5093322;28;20280;-71
2022/11/30 08:13:55;;;;;;;415.97;385.93;;;6.90;29.10;;;;;;5098157;28;20533;-70
2022/11/30 08:16:23;;;;;;;237.33;217.57;;;7.00;27.70;;;;;;5096978;28;20428;-70
2022/11/30 08:18:49;;;;;;;422.50;392.90;;;7.00;27.50;;;;;;5084252;28;20928;-70
2022/11/30 08:21:18;;;;;;;216.73;200.23;;;7.10;27.10;;;;;;5078718;28;20480;-70
2022/11/30 08:23:46;;;;;;;561.17;523.97;;;7.20;27.10;;;;;;5070641;28;20213;-69
2022/11/30 08:26:18;;;;;;;157.33;143.13;;;7.40;25.80;;;;;;5091696;28;20835;-68
2022/11/30 08:28:45;;;;;;;577.30;534.50;;;7.50;25.90;;;;;;5092413;28;20451;-69
2022/11/30 08:31:20;;;;;;;511.13;478.73;;;7.50;25.60;;;;;;5074472;28;20423;-69
2022/11/30 08:33:46;;;;;;;629.83;586.87;;;7.50;25.00;;;;;;5094001;28;20462;-69
2022/11/30 08:36:17;;;;;;;539.67;502.97;;;7.70;24.10;;;;;;5091463;28;20417;-69
2022/11/30 08:38:44;;;;;;;582.97;546.17;;;7.70;24.10;;;;;;5061917;28;20427;-72
2022/11/30 08:41:12;;;;;;;602.47;559.60;;;7.80;24.00;;;;;;5076230;28;20825;-69
2022/11/30 08:43:38;;;;;;;509.50;471.27;;;7.90;23.60;;;;;;5074239;28;20443;-69
2022/11/30 08:46:07;;;;;;;665.07;620.50;;;8.00;23.60;;;;;;5074294;28;20422;-69
2022/11/30 08:48:34;;;;;;;624.57;584.63;;;7.90;23.80;;;;;;5074042;28;20407;-68
2022/11/30 08:51:05;;;;;;;320.23;296.63;;;7.80;24.00;;;;;;5085886;28;20897;-69
2022/11/30 08:53:31;;;;;;;559.23;523.40;;;7.90;24.80;;;;;;5093687;28;20524;-69
2022/11/30 08:56:10;;;;;;;720.23;670.07;;;8.00;25.20;;;;;;5080615;28;20422;-69
2022/11/30 08:58:37;;;;;;;544.77;505.90;;;8.00;24.60;;;;;;5074015;28;20545;-71
2022/11/30 09:01:27;;;;;;;716.93;666.20;;;7.80;25.00;;;;;;5074134;28;20724;-69
2022/11/30 09:03:54;;;;;;;635.30;592.17;;;7.70;25.20;;;;;;5072407;28;20467;-69
2022/11/30 09:06:26;;;;;;;496.50;462.70;;;7.50;25.90;;;;;;5073955;28;20767;-69
2022/11/30 09:08:54;;;;;;;620.83;576.70;;;7.30;26.20;;;;;;5073870;28;20419;-70
2022/11/30 09:11:28;;;;;;;472.47;438.47;;;7.30;26.90;;;;;;5091393;28;20973;-70
2022/11/30 09:13:56;;;;;;;408.47;376.27;;;7.20;28.00;;;;;;5093747;28;20978;-70
2022/11/30 09:16:22;;;;;;;511.57;474.47;;;7.30;28.20;;;;;;5093941;28;20781;-70
2022/11/30 09:18:49;;;;;;;487.93;455.17;;;7.20;27.70;;;;;;5077378;28;20525;-69
2022/11/30 09:21:18;;;;;;;663.03;613.23;;;7.20;28.70;;;;;;5073621;28;20469;-69
2022/11/30 09:23:47;;;;;;;533.10;493.90;;;7.10;28.60;;;;;;5071869;28;20443;-69
2022/11/30 09:26:17;;;;;;;315.93;290.83;;;7.10;28.70;;;;;;5073353;28;20414;-70
2022/11/30 09:28:44;;;;;;;599.37;554.47;;;7.10;28.30;;;;;;5073611;28;20419;-70
2022/11/30 09:31:19;;;;;;;700.87;643.73;;;7.30;28.30;;;;;;5071948;28;20438;-69
2022/11/30 09:33:45;;;;;;;448.73;415.60;;;7.20;27.90;;;;;;5071822;28;20469;-68
2022/11/30 09:36:13;;;;;;;539.53;500.63;;;7.20;28.70;;;;;;5073085;28;20459;-69
2022/11/30 09:38:41;;;;;;;587.80;543.90;;;7.20;29.10;;;;;;5072406;28;20426;-69
2022/11/30 09:41:19;;;;;;;311.37;286.50;;;7.10;28.50;;;;;;5073122;28;20421;-69
2022/11/30 09:44:08;;;;;;;565.40;522.40;;;7.20;29.50;;;;;;5073079;28;20435;-69
2022/11/30 09:46:40;;;;;;;750.80;692.67;;;7.30;28.90;;;;;;5073019;28;20751;-68
2022/11/30 09:49:20;;;;;;;336.77;309.60;;;7.20;29.60;;;;;;5073593;28;20848;-68
2022/11/30 09:51:51;;;;;;;516.70;480.50;;;7.20;27.30;;;;;;5072908;28;20409;-68
2022/11/30 09:54:34;;;;;;;593.53;551.70;;;7.00;27.90;;;;;;5071187;28;21027;-68
2022/11/30 09:57:03;;;;;;;590.37;552.77;;;7.00;27.80;;;;;;5072697;28;20406;-69
2022/11/30 09:59:32;;;;;;;545.07;511.37;;;7.00;28.30;;;;;;5072994;28;20397;-68
2022/11/30 10:02:13;;;;;;;582.63;542.13;;;7.00;27.80;;;;;;5072397;28;20419;-69
2022/11/30 10:04:38;;;;;;;415.43;384.70;;;7.00;27.50;;;;;;5052858;28;20420;-69
2022/11/30 10:07:04;;;;;;;648.80;602.47;;;7.20;27.60;;;;;;5052681;28;20494;-68
2022/11/30 10:09:45;;;;;;;412.50;383.90;;;7.40;26.60;;;;;;5052516;28;20177;-70
2022/11/30 10:12:17;;;;;;;404.93;375.93;;;7.30;25.20;;;;;;5052368;28;20173;-69
2022/11/30 10:14:59;;;;;;;559.17;519.40;;;7.10;25.10;;;;;;5061021;28;20943;-70
2022/11/30 10:17:52;;;;;;;258.30;237.60;;;7.30;25.80;;;;;;5086839;28;21008;-70
2022/11/30 10:20:42;;;;;;;492.23;455.17;;;7.50;25.90;;;;;;5072503;28;20415;-71
2022/11/30 10:23:22;;;;;;;396.97;369.27;;;7.80;26.10;;;;;;5090047;28;20454;-70
2022/11/30 10:25:58;;;;;;;539.10;500.47;;;7.90;25.40;;;;;;5093261;28;20485;-70
2022/11/30 10:28:35;;;;;;;597.83;554.20;;;7.90;25.60;;;;;;5092621;28;20487;-70
2022/11/30 10:31:02;;;;;;;414.03;384.17;;;7.90;25.40;;;;;;5090911;28;20436;-70
2022/11/30 10:33:37;;;;;;;400.33;371.10;;;7.90;25.80;;;;;;5082070;28;20462;-70
2022/11/30 10:36:11;;;;;;;554.03;513.43;;;7.80;25.50;;;;;;5073081;28;20429;-70
2022/11/30 10:38:47;;;;;;;552.13;514.13;;;7.70;25.80;;;;;;5066470;28;20459;-70
2022/11/30 10:41:20;;;;;;;425.40;393.50;;;7.60;25.90;;;;;;5084382;28;20503;-70
2022/11/30 10:44:22;;;;;;;605.77;561.97;;;7.60;25.90;;;;;;5086817;28;20761;-70
2022/11/30 10:46:56;;;;;;;588.80;545.47;;;7.40;26.90;;;;;;5079962;28;20494;-70
2022/11/30 10:49:23;;;;;;;504.50;467.70;;;7.30;27.30;;;;;;5091831;28;20425;-70
2022/11/30 10:51:54;;;;;;;617.07;573.43;;;7.20;27.50;;;;;;5090896;28;20904;-70
2022/11/30 10:54:22;;;;;;;412.47;383.03;;;7.30;27.90;;;;;;5072959;28;20454;-70
2022/11/30 10:56:48;;;;;;;419.70;388.50;;;7.20;28.10;;;;;;5077048;28;20543;-70
2022/11/30 10:59:22;;;;;;;569.17;528.30;;;7.00;28.30;;;;;;5092239;28;20968;-69
2022/11/30 11:01:48;;;;;;;570.63;529.07;;;7.00;29.70;;;;;;5091452;28;20520;-69
2022/11/30 11:04:22;;;;;;;339.70;314.43;;;7.10;29.70;;;;;;5071414;28;20492;-68
2022/11/30 11:07:05;;;;;;;582.30;541.00;;;6.80;28.10;;;;;;5074891;28;20202;-69
2022/11/30 11:09:32;;;;;;;272.07;251.67;;;6.80;28.00;;;;;;5083247;28;20824;-69
2022/11/30 11:12:01;;;;;;;428.60;397.33;;;6.90;29.20;;;;;;5071394;28;20447;-69
2022/11/30 11:14:27;;;;;;;464.17;429.23;;;7.00;28.50;;;;;;5071937;28;20924;-69
2022/11/30 11:17:03;;;;;;;333.13;308.37;;;7.00;28.30;;;;;;5071694;28;20406;-69
2022/11/30 11:19:38;;;;;;;520.87;485.60;;;7.10;28.50;;;;;;5070711;28;20176;-69
2022/11/30 11:22:05;;;;;;;448.03;414.43;;;7.00;27.60;;;;;;5071372;28;20451;-69
2022/11/30 11:24:32;;;;;;;574.80;533.53;;;7.00;27.90;;;;;;5071360;28;20782;-70
2022/11/30 11:26:58;;;;;;;546.80;507.43;;;7.00;27.50;;;;;;5071599;28;20428;-70
2022/11/30 11:29:33;;;;;;;607.43;561.70;;;7.00;28.10;;;;;;5071597;28;20776;-69
2022/11/30 11:32:23;;;;;;;425.17;393.17;;;6.90;28.00;;;;;;5071480;28;20756;-68
2022/11/30 11:34:49;;;;;;;499.50;463.93;;;7.00;28.60;;;;;;5071475;28;20415;-68
2022/11/30 11:37:19;;;;;;;344.67;317.33;;;6.90;27.80;;;;;;5071603;28;20466;-68
2022/11/30 11:40:01;;;;;;;475.73;439.20;;;7.00;28.30;;;;;;5071387;28;20176;-69
2022/11/30 11:42:31;;;;;;;652.57;606.03;;;7.10;28.40;;;;;;5070058;28;20520;-68
2022/11/30 11:44:58;;;;;;;481.57;446.17;;;7.10;27.80;;;;;;5070274;28;20418;-69
2022/11/30 11:47:28;;;;;;;632.90;586.00;;;7.20;28.00;;;;;;5071639;28;20416;-68
2022/11/30 11:50:06;;;;;;;646.43;597.73;;;7.20;28.20;;;;;;5073903;28;20431;-68
2022/11/30 11:52:31;;;;;;;607.87;567.13;;;7.30;27.80;;;;;;5076430;28;20474;-70
2022/11/30 11:55:16;;;;;;;402.03;373.30;;;7.30;27.80;;;;;;5055779;28;20868;-70
2022/11/30 11:57:57;;;;;;;639.90;596.47;;;7.40;27.50;;;;;;5051434;28;20534;-70
2022/11/30 12:00:26;;;;;;;446.60;414.37;;;7.20;26.90;;;;;;5067277;28;20431;-70
2022/11/30 12:03:18;;;;;;;337.70;312.17;;;7.40;28.00;;;;;;5070998;28;20462;-69
2022/11/30 12:05:49;;;;;;;410.70;379.13;;;7.70;27.20;;;;;;5071241;28;20807;-69
2022/11/30 12:08:40;;;;;;;563.87;522.93;;;7.80;26.30;;;;;;5069755;28;20425;-70
2022/11/30 12:11:09;;;;;;;573.90;534.40;;;7.90;26.10;;;;;;5071032;28;20421;-70
2022/11/30 12:13:40;;;;;;;180.67;164.53;;;7.80;25.80;;;;;;5070882;28;20490;-70
2022/11/30 12:16:15;;;;;;;454.77;420.53;;;7.90;25.70;;;;;;5069818;28;20431;-70
2022/11/30 12:18:52;;;;;;;523.80;486.07;;;7.80;25.20;;;;;;5074458;28;20407;-70
2022/11/30 12:21:33;;;;;;;552.27;516.07;;;7.70;25.60;;;;;;5074515;28;20410;-69
2022/11/30 12:24:11;;;;;;;502.70;467.63;;;7.80;25.50;;;;;;5074954;28;20428;-70
2022/11/30 12:26:43;;;;;;;331.57;305.50;;;7.70;26.00;;;;;;5074965;28;20415;-70
2022/11/30 12:29:38;;;;;;;652.67;607.23;;;7.60;26.00;;;;;;5084516;28;20525;-70